Cartwright, Canada
Current Conditions -  °F | °C
As of 9:00 AM on Tuesday 21 Oct 2014 (Local Time) from CWCA Reporting Station
Light Rain Light Rain  
Wind Chill: 27°   Ceiling: 1200
Heat Index: 37°   Visibility: 7mi
Dew Point: 34°   Wind: 20mph
Humidity: 87%   Direction: 310°NW
Pressure: 29.64"   Gusts: 29mph
Location:  53.7°N, 57.03°W
Report Text: CWCA 211200Z 31017G25KT 7SM -RA SCT007 OVC012 03/01 A2964 RMK ST3SC5 PRESRR SLP039
Loading
Personal Weather Stations






























Interactive Weather Map
Tropical Storm Tracking
New forecast layout! Learn more

10-Day Weather Forecast

Advertisements
Track Severe Weather on mobile